sensor_id;sensor_type;location;lat;lon;timestamp;temperature;humidity
16846;DHT22;8539;53.188;8.696;2022-09-09T00:00:55;13.30;99.90
16846;DHT22;8539;53.188;8.696;2022-09-09T00:03:37;13.30;99.90
16846;DHT22;8539;53.188;8.696;2022-09-09T00:06:14;13.30;99.90
16846;DHT22;8539;53.188;8.696;2022-09-09T00:09:13;13.30;99.90
16846;DHT22;8539;53.188;8.696;2022-09-09T00:14:51;13.20;99.90
16846;DHT22;8539;53.188;8.696;2022-09-09T00:20:33;13.10;99.90
16846;DHT22;8539;53.188;8.696;2022-09-09T00:23:12;13.10;99.90
16846;DHT22;8539;53.188;8.696;2022-09-09T00:28:22;13.00;99.90
16846;DHT22;8539;53.188;8.696;2022-09-09T00:30:48;13.00;99.90
16846;DHT22;8539;53.188;8.696;2022-09-09T00:33:18;13.00;99.90
16846;DHT22;8539;53.188;8.696;2022-09-09T00:35:49;13.10;99.90
16846;DHT22;8539;53.188;8.696;2022-09-09T00:38:22;13.10;99.90
16846;DHT22;8539;53.188;8.696;2022-09-09T00:40:55;13.10;99.90
16846;DHT22;8539;53.188;8.696;2022-09-09T00:43:32;13.10;99.90
16846;DHT22;8539;53.188;8.696;2022-09-09T00:46:14;13.10;99.90
16846;DHT22;8539;53.188;8.696;2022-09-09T00:48:49;13.10;99.90
16846;DHT22;8539;53.188;8.696;2022-09-09T00:54:42;13.10;99.90
16846;DHT22;8539;53.188;8.696;2022-09-09T00:57:27;13.00;99.90
16846;DHT22;8539;53.188;8.696;2022-09-09T01:00:27;13.00;99.90
16846;DHT22;8539;53.188;8.696;2022-09-09T01:06:01;12.90;99.90
16846;DHT22;8539;53.188;8.696;2022-09-09T01:08:48;12.90;99.90
16846;DHT22;8539;53.188;8.696;2022-09-09T01:11:25;12.90;99.90
16846;DHT22;8539;53.188;8.696;2022-09-09T01:13:53;12.90;99.90
16846;DHT22;8539;53.188;8.696;2022-09-09T01:16:21;12.80;99.90
16846;DHT22;8539;53.188;8.696;2022-09-09T01:18:51;12.80;99.90
16846;DHT22;8539;53.188;8.696;2022-09-09T01:21:36;12.80;99.90
16846;DHT22;8539;53.188;8.696;2022-09-09T01:27:18;12.80;99.90
16846;DHT22;8539;53.188;8.696;2022-09-09T01:29:46;12.80;99.90
16846;DHT22;8539;53.188;8.696;2022-09-09T01:32:42;12.80;99.90
16846;DHT22;8539;53.188;8.696;2022-09-09T01:35:19;12.90;99.90
16846;DHT22;8539;53.188;8.696;2022-09-09T01:37:47;12.90;99.90
16846;DHT22;8539;53.188;8.696;2022-09-09T01:40:13;12.90;99.90
16846;DHT22;8539;53.188;8.696;2022-09-09T01:42:40;12.90;99.90
16846;DHT22;8539;53.188;8.696;2022-09-09T01:45:06;12.80;99.90
16846;DHT22;8539;53.188;8.696;2022-09-09T01:47:33;12.80;99.90
16846;DHT22;8539;53.188;8.696;2022-09-09T01:50:01;12.80;99.90
16846;DHT22;8539;53.188;8.696;2022-09-09T01:52:29;12.80;99.90
16846;DHT22;8539;53.188;8.696;2022-09-09T01:55:32;12.80;99.90
16846;DHT22;8539;53.188;8.696;2022-09-09T01:58:17;12.80;99.90
16846;DHT22;8539;53.188;8.696;2022-09-09T02:01:02;12.80;99.90
16846;DHT22;8539;53.188;8.696;2022-09-09T02:03:33;12.80;99.90
16846;DHT22;8539;53.188;8.696;2022-09-09T02:06:27;12.80;99.90
16846;DHT22;8539;53.188;8.696;2022-09-09T02:08:57;12.70;99.90
16846;DHT22;8539;53.188;8.696;2022-09-09T02:11:27;12.70;99.90
16846;DHT22;8539;53.188;8.696;2022-09-09T02:14:05;12.70;99.90
16846;DHT22;8539;53.188;8.696;2022-09-09T02:16:55;12.70;99.90
16846;DHT22;8539;53.188;8.696;2022-09-09T02:19:39;12.70;99.90
16846;DHT22;8539;53.188;8.696;2022-09-09T02:22:07;12.70;99.90
16846;DHT22;8539;53.188;8.696;2022-09-09T02:24:38;12.70;99.90
16846;DHT22;8539;53.188;8.696;2022-09-09T02:27:07;12.70;99.90
16846;DHT22;8539;53.188;8.696;2022-09-09T02:29:37;12.70;99.90
16846;DHT22;8539;53.188;8.696;2022-09-09T02:32:06;12.70;99.90
16846;DHT22;8539;53.188;8.696;2022-09-09T02:34:38;12.70;99.90
16846;DHT22;8539;53.188;8.696;2022-09-09T02:37:08;12.70;99.90
16846;DHT22;8539;53.188;8.696;2022-09-09T02:39:35;12.60;99.90
16846;DHT22;8539;53.188;8.696;2022-09-09T02:42:02;12.60;99.90
16846;DHT22;8539;53.188;8.696;2022-09-09T02:44:30;12.60;99.90
16846;DHT22;8539;53.188;8.696;2022-09-09T02:47:17;12.60;99.90
16846;DHT22;8539;53.188;8.696;2022-09-09T02:52:35;12.60;99.90
16846;DHT22;8539;53.188;8.696;2022-09-09T02:55:16;12.50;99.90
16846;DHT22;8539;53.188;8.696;2022-09-09T02:57:46;12.50;99.90
16846;DHT22;8539;53.188;8.696;2022-09-09T03:00:14;12.50;99.90
16846;DHT22;8539;53.188;8.696;2022-09-09T03:02:40;12.50;99.90
16846;DHT22;8539;53.188;8.696;2022-09-09T03:05:08;12.50;99.90
16846;DHT22;8539;53.188;8.696;2022-09-09T03:07:34;12.50;99.90
16846;DHT22;8539;53.188;8.696;2022-09-09T03:10:01;12.50;99.90
16846;DHT22;8539;53.188;8.696;2022-09-09T03:12:27;12.50;99.90
16846;DHT22;8539;53.188;8.696;2022-09-09T03:14:53;12.50;99.90
16846;DHT22;8539;53.188;8.696;2022-09-09T03:17:19;12.50;99.90
16846;DHT22;8539;53.188;8.696;2022-09-09T03:19:45;12.50;99.90
16846;DHT22;8539;53.188;8.696;2022-09-09T03:22:11;12.40;99.90
16846;DHT22;8539;53.188;8.696;2022-09-09T03:24:37;12.50;99.90
16846;DHT22;8539;53.188;8.696;2022-09-09T03:27:03;12.40;99.90
16846;DHT22;8539;53.188;8.696;2022-09-09T03:29:29;12.40;99.90
16846;DHT22;8539;53.188;8.696;2022-09-09T03:31:55;12.40;99.90
16846;DHT22;8539;53.188;8.696;2022-09-09T03:34:21;12.40;99.90
16846;DHT22;8539;53.188;8.696;2022-09-09T03:36:47;12.40;99.90
16846;DHT22;8539;53.188;8.696;2022-09-09T03:39:15;12.40;99.90
16846;DHT22;8539;53.188;8.696;2022-09-09T03:41:41;12.40;99.90
16846;DHT22;8539;53.188;8.696;2022-09-09T03:44:07;12.40;99.90
16846;DHT22;8539;53.188;8.696;2022-09-09T03:46:33;12.40;99.90
16846;DHT22;8539;53.188;8.696;2022-09-09T03:48:59;12.40;99.90
16846;DHT22;8539;53.188;8.696;2022-09-09T03:51:25;12.40;99.90
16846;DHT22;8539;53.188;8.696;2022-09-09T03:53:51;12.40;99.90
16846;DHT22;8539;53.188;8.696;2022-09-09T03:56:20;12.40;99.90
16846;DHT22;8539;53.188;8.696;2022-09-09T03:58:47;12.50;99.90
16846;DHT22;8539;53.188;8.696;2022-09-09T04:01:13;12.50;99.90
16846;DHT22;8539;53.188;8.696;2022-09-09T04:03:40;12.50;99.90
16846;DHT22;8539;53.188;8.696;2022-09-09T04:06:08;12.50;99.90
16846;DHT22;8539;53.188;8.696;2022-09-09T04:08:35;12.60;99.90
16846;DHT22;8539;53.188;8.696;2022-09-09T04:11:02;12.60;99.90
16846;DHT22;8539;53.188;8.696;2022-09-09T04:13:36;12.60;99.90
16846;DHT22;8539;53.188;8.696;2022-09-09T04:16:06;12.60;99.90
16846;DHT22;8539;53.188;8.696;2022-09-09T04:18:33;12.70;99.90
16846;DHT22;8539;53.188;8.696;2022-09-09T04:21:00;12.70;99.90
16846;DHT22;8539;53.188;8.696;2022-09-09T04:23:28;12.70;99.90
16846;DHT22;8539;53.188;8.696;2022-09-09T04:25:58;12.70;99.90
16846;DHT22;8539;53.188;8.696;2022-09-09T04:28:26;12.70;99.90
16846;DHT22;8539;53.188;8.696;2022-09-09T04:30:53;12.80;99.90
16846;DHT22;8539;53.188;8.696;2022-09-09T04:33:19;12.80;99.90
16846;DHT22;8539;53.188;8.696;2022-09-09T04:35:47;12.80;99.90
16846;DHT22;8539;53.188;8.696;2022-09-09T04:38:13;12.90;99.90
16846;DHT22;8539;53.188;8.696;2022-09-09T04:40:48;13.00;99.90
16846;DHT22;8539;53.188;8.696;2022-09-09T04:43:15;13.10;99.90
16846;DHT22;8539;53.188;8.696;2022-09-09T04:45:42;13.20;99.90
16846;DHT22;8539;53.188;8.696;2022-09-09T04:48:08;13.30;99.90
16846;DHT22;8539;53.188;8.696;2022-09-09T04:50:35;13.40;99.90
16846;DHT22;8539;53.188;8.696;2022-09-09T04:53:03;13.40;99.90
16846;DHT22;8539;53.188;8.696;2022-09-09T04:55:31;13.50;99.90
16846;DHT22;8539;53.188;8.696;2022-09-09T04:58:06;13.50;99.90
16846;DHT22;8539;53.188;8.696;2022-09-09T05:00:36;13.50;99.90
16846;DHT22;8539;53.188;8.696;2022-09-09T05:03:06;13.50;99.90
16846;DHT22;8539;53.188;8.696;2022-09-09T05:05:35;13.50;99.90
16846;DHT22;8539;53.188;8.696;2022-09-09T05:08:03;13.50;99.90
16846;DHT22;8539;53.188;8.696;2022-09-09T05:10:29;13.60;99.90
16846;DHT22;8539;53.188;8.696;2022-09-09T05:12:55;13.60;99.90
16846;DHT22;8539;53.188;8.696;2022-09-09T05:15:21;13.60;99.90
16846;DHT22;8539;53.188;8.696;2022-09-09T05:17:47;13.60;99.90
16846;DHT22;8539;53.188;8.696;2022-09-09T05:20:14;13.60;99.90
16846;DHT22;8539;53.188;8.696;2022-09-09T05:22:40;13.60;99.90
16846;DHT22;8539;53.188;8.696;2022-09-09T05:25:19;13.60;99.90
16846;DHT22;8539;53.188;8.696;2022-09-09T05:27:45;13.60;99.90
16846;DHT22;8539;53.188;8.696;2022-09-09T05:30:11;13.60;99.90
16846;DHT22;8539;53.188;8.696;2022-09-09T05:32:37;13.60;99.90
16846;DHT22;8539;53.188;8.696;2022-09-09T05:35:04;13.70;99.90
16846;DHT22;8539;53.188;8.696;2022-09-09T05:37:31;13.70;99.90
16846;DHT22;8539;53.188;8.696;2022-09-09T05:39:57;13.70;99.90
16846;DHT22;8539;53.188;8.696;2022-09-09T05:42:24;13.80;99.90
16846;DHT22;8539;53.188;8.696;2022-09-09T05:44:50;13.80;99.90
16846;DHT22;8539;53.188;8.696;2022-09-09T05:47:16;13.80;99.90
16846;DHT22;8539;53.188;8.696;2022-09-09T05:49:42;13.80;99.90
16846;DHT22;8539;53.188;8.696;2022-09-09T05:52:08;13.90;99.90
16846;DHT22;8539;53.188;8.696;2022-09-09T05:54:35;13.80;99.90
16846;DHT22;8539;53.188;8.696;2022-09-09T05:57:03;13.90;99.90
16846;DHT22;8539;53.188;8.696;2022-09-09T05:59:29;13.90;99.90
16846;DHT22;8539;53.188;8.696;2022-09-09T06:01:57;13.90;99.90
16846;DHT22;8539;53.188;8.696;2022-09-09T06:04:25;13.90;99.90
16846;DHT22;8539;53.188;8.696;2022-09-09T06:06:52;13.90;99.90
16846;DHT22;8539;53.188;8.696;2022-09-09T06:09:18;13.90;99.90
16846;DHT22;8539;53.188;8.696;2022-09-09T06:11:44;13.90;99.90
16846;DHT22;8539;53.188;8.696;2022-09-09T06:14:11;14.00;99.90
16846;DHT22;8539;53.188;8.696;2022-09-09T06:16:37;14.00;99.90
16846;DHT22;8539;53.188;8.696;2022-09-09T06:19:04;14.00;99.90
16846;DHT22;8539;53.188;8.696;2022-09-09T06:21:35;14.00;99.90
16846;DHT22;8539;53.188;8.696;2022-09-09T06:24:04;14.00;99.90
16846;DHT22;8539;53.188;8.696;2022-09-09T06:26:33;14.10;99.90
16846;DHT22;8539;53.188;8.696;2022-09-09T06:29:00;14.10;99.90
16846;DHT22;8539;53.188;8.696;2022-09-09T06:31:29;14.20;99.90
16846;DHT22;8539;53.188;8.696;2022-09-09T06:34:00;14.30;99.90
16846;DHT22;8539;53.188;8.696;2022-09-09T06:36:28;14.40;99.90
16846;DHT22;8539;53.188;8.696;2022-09-09T06:38:55;14.40;99.90
16846;DHT22;8539;53.188;8.696;2022-09-09T06:41:23;14.50;99.90
16846;DHT22;8539;53.188;8.696;2022-09-09T06:43:49;14.70;99.90
16846;DHT22;8539;53.188;8.696;2022-09-09T06:46:20;15.00;99.90
16846;DHT22;8539;53.188;8.696;2022-09-09T06:48:47;15.20;99.90
16846;DHT22;8539;53.188;8.696;2022-09-09T06:51:17;15.20;99.90
16846;DHT22;8539;53.188;8.696;2022-09-09T06:53:45;15.20;99.90
16846;DHT22;8539;53.188;8.696;2022-09-09T06:58:50;15.30;99.90
16846;DHT22;8539;53.188;8.696;2022-09-09T07:01:19;15.40;99.90
16846;DHT22;8539;53.188;8.696;2022-09-09T07:03:50;15.40;99.90
16846;DHT22;8539;53.188;8.696;2022-09-09T07:06:38;15.50;99.90
16846;DHT22;8539;53.188;8.696;2022-09-09T07:09:07;15.60;99.90
16846;DHT22;8539;53.188;8.696;2022-09-09T07:11:42;15.60;99.90
16846;DHT22;8539;53.188;8.696;2022-09-09T07:14:09;15.70;99.90
16846;DHT22;8539;53.188;8.696;2022-09-09T07:16:37;15.80;99.90
16846;DHT22;8539;53.188;8.696;2022-09-09T07:19:04;15.80;99.90
16846;DHT22;8539;53.188;8.696;2022-09-09T07:21:31;15.90;99.90
16846;DHT22;8539;53.188;8.696;2022-09-09T07:23:58;16.00;99.90
16846;DHT22;8539;53.188;8.696;2022-09-09T07:26:27;16.00;99.90
16846;DHT22;8539;53.188;8.696;2022-09-09T07:28:55;16.10;99.90
16846;DHT22;8539;53.188;8.696;2022-09-09T07:31:33;16.20;99.90
16846;DHT22;8539;53.188;8.696;2022-09-09T07:34:00;16.30;99.90
16846;DHT22;8539;53.188;8.696;2022-09-09T07:36:28;16.30;99.90
16846;DHT22;8539;53.188;8.696;2022-09-09T07:39:00;16.40;99.90
16846;DHT22;8539;53.188;8.696;2022-09-09T07:41:43;16.60;99.90
16846;DHT22;8539;53.188;8.696;2022-09-09T07:44:11;16.70;99.90
16846;DHT22;8539;53.188;8.696;2022-09-09T07:46:38;16.80;99.90
16846;DHT22;8539;53.188;8.696;2022-09-09T07:49:08;16.90;99.90
16846;DHT22;8539;53.188;8.696;2022-09-09T07:51:37;17.00;99.90
16846;DHT22;8539;53.188;8.696;2022-09-09T07:54:06;17.10;99.90
16846;DHT22;8539;53.188;8.696;2022-09-09T07:56:33;17.20;99.90
16846;DHT22;8539;53.188;8.696;2022-09-09T07:58:59;17.30;99.90
16846;DHT22;8539;53.188;8.696;2022-09-09T08:01:32;17.40;99.90
16846;DHT22;8539;53.188;8.696;2022-09-09T08:04:02;17.40;99.90
16846;DHT22;8539;53.188;8.696;2022-09-09T08:06:34;17.50;99.90
16846;DHT22;8539;53.188;8.696;2022-09-09T08:09:01;17.60;99.90
16846;DHT22;8539;53.188;8.696;2022-09-09T08:11:28;17.60;99.90
16846;DHT22;8539;53.188;8.696;2022-09-09T08:13:55;17.70;99.90
16846;DHT22;8539;53.188;8.696;2022-09-09T08:16:27;17.80;99.90
16846;DHT22;8539;53.188;8.696;2022-09-09T08:18:53;17.80;99.90
16846;DHT22;8539;53.188;8.696;2022-09-09T08:21:23;17.90;99.90
16846;DHT22;8539;53.188;8.696;2022-09-09T08:23:51;17.90;99.90
16846;DHT22;8539;53.188;8.696;2022-09-09T08:26:29;18.00;99.90
16846;DHT22;8539;53.188;8.696;2022-09-09T08:28:58;18.00;99.90
16846;DHT22;8539;53.188;8.696;2022-09-09T08:31:33;18.00;99.90
16846;DHT22;8539;53.188;8.696;2022-09-09T08:34:00;18.00;99.90
16846;DHT22;8539;53.188;8.696;2022-09-09T08:36:31;18.00;99.90
16846;DHT22;8539;53.188;8.696;2022-09-09T08:39:00;18.00;99.90
16846;DHT22;8539;53.188;8.696;2022-09-09T08:41:49;18.10;99.90
16846;DHT22;8539;53.188;8.696;2022-09-09T08:52:30;18.00;99.90
16846;DHT22;8539;53.188;8.696;2022-09-09T08:55:25;18.00;99.90
16846;DHT22;8539;53.188;8.696;2022-09-09T08:57:55;18.00;99.90
16846;DHT22;8539;53.188;8.696;2022-09-09T09:00:22;17.90;99.90
16846;DHT22;8539;53.188;8.696;2022-09-09T09:08:48;18.00;99.90
16846;DHT22;8539;53.188;8.696;2022-09-09T09:11:17;18.30;99.90
16846;DHT22;8539;53.188;8.696;2022-09-09T09:14:01;18.60;99.90
16846;DHT22;8539;53.188;8.696;2022-09-09T09:16:33;18.80;99.90
16846;DHT22;8539;53.188;8.696;2022-09-09T09:19:01;19.00;99.90
16846;DHT22;8539;53.188;8.696;2022-09-09T09:21:34;19.10;99.90
16846;DHT22;8539;53.188;8.696;2022-09-09T09:24:07;19.20;99.90
16846;DHT22;8539;53.188;8.696;2022-09-09T09:26:37;19.20;99.90
16846;DHT22;8539;53.188;8.696;2022-09-09T09:29:12;19.20;99.90
16846;DHT22;8539;53.188;8.696;2022-09-09T09:31:39;19.20;99.90
16846;DHT22;8539;53.188;8.696;2022-09-09T09:34:08;19.20;99.90
16846;DHT22;8539;53.188;8.696;2022-09-09T09:36:45;19.30;99.90
16846;DHT22;8539;53.188;8.696;2022-09-09T09:39:31;19.30;99.90
16846;DHT22;8539;53.188;8.696;2022-09-09T09:42:28;19.30;99.90
16846;DHT22;8539;53.188;8.696;2022-09-09T09:44:54;19.10;99.90
16846;DHT22;8539;53.188;8.696;2022-09-09T09:47:22;19.10;99.90
16846;DHT22;8539;53.188;8.696;2022-09-09T09:49:57;19.20;99.90
16846;DHT22;8539;53.188;8.696;2022-09-09T09:52:27;19.30;99.90
16846;DHT22;8539;53.188;8.696;2022-09-09T09:54:56;19.40;99.90
16846;DHT22;8539;53.188;8.696;2022-09-09T09:57:26;19.50;99.90
16846;DHT22;8539;53.188;8.696;2022-09-09T10:00:22;19.60;99.90
16846;DHT22;8539;53.188;8.696;2022-09-09T10:02:49;19.80;99.90
16846;DHT22;8539;53.188;8.696;2022-09-09T10:05:20;20.10;99.90
16846;DHT22;8539;53.188;8.696;2022-09-09T10:08:04;20.20;99.90
16846;DHT22;8539;53.188;8.696;2022-09-09T10:11:14;20.30;99.90
16846;DHT22;8539;53.188;8.696;2022-09-09T10:19:37;20.50;99.90
16846;DHT22;8539;53.188;8.696;2022-09-09T10:33:22;21.50;99.90
16846;DHT22;8539;53.188;8.696;2022-09-09T10:36:22;21.60;99.90
16846;DHT22;8539;53.188;8.696;2022-09-09T10:39:16;21.50;99.90
16846;DHT22;8539;53.188;8.696;2022-09-09T10:41:52;21.30;99.90
16846;DHT22;8539;53.188;8.696;2022-09-09T10:44:40;21.20;99.90
16846;DHT22;8539;53.188;8.696;2022-09-09T10:55:45;21.00;99.90
16846;DHT22;8539;53.188;8.696;2022-09-09T10:58:21;21.00;99.90
16846;DHT22;8539;53.188;8.696;2022-09-09T11:00:56;21.00;99.90
16846;DHT22;8539;53.188;8.696;2022-09-09T11:03:26;21.00;99.90
16846;DHT22;8539;53.188;8.696;2022-09-09T11:08:26;21.10;99.90
16846;DHT22;8539;53.188;8.696;2022-09-09T11:11:32;21.20;99.90
16846;DHT22;8539;53.188;8.696;2022-09-09T11:14:09;21.30;99.90
16846;DHT22;8539;53.188;8.696;2022-09-09T11:16:52;21.30;99.90
16846;DHT22;8539;53.188;8.696;2022-09-09T11:19:34;21.40;99.90
16846;DHT22;8539;53.188;8.696;2022-09-09T11:25:29;21.30;99.90
16846;DHT22;8539;53.188;8.696;2022-09-09T11:28:16;21.20;99.90
16846;DHT22;8539;53.188;8.696;2022-09-09T11:34:00;21.00;99.90
16846;DHT22;8539;53.188;8.696;2022-09-09T11:39:37;20.90;99.90
16846;DHT22;8539;53.188;8.696;2022-09-09T11:42:25;21.10;99.90
16846;DHT22;8539;53.188;8.696;2022-09-09T11:44:52;21.30;99.90
16846;DHT22;8539;53.188;8.696;2022-09-09T11:47:30;21.50;99.90
16846;DHT22;8539;53.188;8.696;2022-09-09T11:52:43;21.90;99.90
16846;DHT22;8539;53.188;8.696;2022-09-09T11:57:38;21.90;99.90
16846;DHT22;8539;53.188;8.696;2022-09-09T12:00:06;21.90;99.90
16846;DHT22;8539;53.188;8.696;2022-09-09T12:02:32;21.80;99.90
16846;DHT22;8539;53.188;8.696;2022-09-09T12:05:08;21.60;99.90
16846;DHT22;8539;53.188;8.696;2022-09-09T12:12:47;21.10;99.90
16846;DHT22;8539;53.188;8.696;2022-09-09T12:17:51;20.60;99.90
16846;DHT22;8539;53.188;8.696;2022-09-09T12:22:59;20.40;99.90
16846;DHT22;8539;53.188;8.696;2022-09-09T12:28:22;20.20;99.90
16846;DHT22;8539;53.188;8.696;2022-09-09T12:33:35;20.00;99.90
16846;DHT22;8539;53.188;8.696;2022-09-09T12:36:14;19.90;99.90
16846;DHT22;8539;53.188;8.696;2022-09-09T12:38:42;19.90;99.90
16846;DHT22;8539;53.188;8.696;2022-09-09T12:41:23;19.80;99.90
16846;DHT22;8539;53.188;8.696;2022-09-09T12:43:51;19.80;99.90
16846;DHT22;8539;53.188;8.696;2022-09-09T12:46:41;19.70;99.90
16846;DHT22;8539;53.188;8.696;2022-09-09T12:49:32;19.60;99.90
16846;DHT22;8539;53.188;8.696;2022-09-09T12:52:07;19.40;99.90
16846;DHT22;8539;53.188;8.696;2022-09-09T12:54:36;19.30;99.90
16846;DHT22;8539;53.188;8.696;2022-09-09T12:57:04;19.20;99.90
16846;DHT22;8539;53.188;8.696;2022-09-09T12:59:39;19.00;99.90
16846;DHT22;8539;53.188;8.696;2022-09-09T13:02:23;18.90;99.90
16846;DHT22;8539;53.188;8.696;2022-09-09T13:04:51;18.80;99.90
16846;DHT22;8539;53.188;8.696;2022-09-09T13:07:19;18.70;99.90
16846;DHT22;8539;53.188;8.696;2022-09-09T13:09:47;18.70;99.90
16846;DHT22;8539;53.188;8.696;2022-09-09T13:12:19;18.60;99.90
16846;DHT22;8539;53.188;8.696;2022-09-09T13:14:49;18.50;99.90
16846;DHT22;8539;53.188;8.696;2022-09-09T13:17:27;18.50;99.90
16846;DHT22;8539;53.188;8.696;2022-09-09T13:19:57;18.40;99.90
16846;DHT22;8539;53.188;8.696;2022-09-09T13:22:30;18.40;99.90
16846;DHT22;8539;53.188;8.696;2022-09-09T13:25:17;18.40;99.90
16846;DHT22;8539;53.188;8.696;2022-09-09T13:27:59;18.50;99.90
16846;DHT22;8539;53.188;8.696;2022-09-09T13:30:30;18.60;99.90
16846;DHT22;8539;53.188;8.696;2022-09-09T13:35:36;18.60;99.90
16846;DHT22;8539;53.188;8.696;2022-09-09T13:38:16;18.60;99.90
16846;DHT22;8539;53.188;8.696;2022-09-09T13:41:00;18.70;99.90
16846;DHT22;8539;53.188;8.696;2022-09-09T13:43:34;18.60;99.90
16846;DHT22;8539;53.188;8.696;2022-09-09T13:46:03;18.60;99.90
16846;DHT22;8539;53.188;8.696;2022-09-09T13:48:30;18.60;99.90
16846;DHT22;8539;53.188;8.696;2022-09-09T13:51:00;18.60;99.90
16846;DHT22;8539;53.188;8.696;2022-09-09T13:53:27;18.50;99.90
16846;DHT22;8539;53.188;8.696;2022-09-09T13:55:55;18.50;99.90
16846;DHT22;8539;53.188;8.696;2022-09-09T13:58:23;18.40;99.90
16846;DHT22;8539;53.188;8.696;2022-09-09T14:00:52;18.30;99.90
16846;DHT22;8539;53.188;8.696;2022-09-09T14:03:19;18.20;99.90
16846;DHT22;8539;53.188;8.696;2022-09-09T14:05:45;18.20;99.90
16846;DHT22;8539;53.188;8.696;2022-09-09T14:08:22;18.10;99.90
16846;DHT22;8539;53.188;8.696;2022-09-09T14:10:48;18.00;99.90
16846;DHT22;8539;53.188;8.696;2022-09-09T14:13:14;18.00;99.90
16846;DHT22;8539;53.188;8.696;2022-09-09T14:15:41;17.90;99.90
16846;DHT22;8539;53.188;8.696;2022-09-09T14:18:11;17.90;99.90
16846;DHT22;8539;53.188;8.696;2022-09-09T14:20:37;17.90;99.90
16846;DHT22;8539;53.188;8.696;2022-09-09T14:23:03;17.90;99.90
16846;DHT22;8539;53.188;8.696;2022-09-09T14:25:29;17.90;99.90
16846;DHT22;8539;53.188;8.696;2022-09-09T14:27:56;17.90;99.90
16846;DHT22;8539;53.188;8.696;2022-09-09T14:30:22;17.90;99.90
16846;DHT22;8539;53.188;8.696;2022-09-09T14:32:48;17.90;99.90
16846;DHT22;8539;53.188;8.696;2022-09-09T14:35:14;17.90;99.90
16846;DHT22;8539;53.188;8.696;2022-09-09T14:37:43;17.90;99.90
16846;DHT22;8539;53.188;8.696;2022-09-09T14:40:09;17.80;99.90
16846;DHT22;8539;53.188;8.696;2022-09-09T14:42:36;17.80;99.90
16846;DHT22;8539;53.188;8.696;2022-09-09T14:45:02;17.80;99.90
16846;DHT22;8539;53.188;8.696;2022-09-09T14:47:29;17.80;99.90
16846;DHT22;8539;53.188;8.696;2022-09-09T14:49:56;17.70;99.90
16846;DHT22;8539;53.188;8.696;2022-09-09T14:52:22;17.70;99.90
16846;DHT22;8539;53.188;8.696;2022-09-09T14:54:48;17.60;99.90
16846;DHT22;8539;53.188;8.696;2022-09-09T14:57:15;17.60;99.90
16846;DHT22;8539;53.188;8.696;2022-09-09T14:59:41;17.60;99.90
16846;DHT22;8539;53.188;8.696;2022-09-09T15:02:08;17.40;99.90
16846;DHT22;8539;53.188;8.696;2022-09-09T15:04:35;17.50;99.90
16846;DHT22;8539;53.188;8.696;2022-09-09T15:07:01;17.50;99.90
16846;DHT22;8539;53.188;8.696;2022-09-09T15:09:27;17.40;99.90
16846;DHT22;8539;53.188;8.696;2022-09-09T15:11:53;17.40;99.90
16846;DHT22;8539;53.188;8.696;2022-09-09T15:14:19;17.40;99.90
16846;DHT22;8539;53.188;8.696;2022-09-09T15:16:45;17.30;99.90
16846;DHT22;8539;53.188;8.696;2022-09-09T15:19:12;17.30;99.90
16846;DHT22;8539;53.188;8.696;2022-09-09T15:21:38;17.30;99.90
16846;DHT22;8539;53.188;8.696;2022-09-09T15:24:05;17.30;99.90
16846;DHT22;8539;53.188;8.696;2022-09-09T15:26:33;17.30;99.90
16846;DHT22;8539;53.188;8.696;2022-09-09T15:29:00;17.20;99.90
16846;DHT22;8539;53.188;8.696;2022-09-09T15:31:28;17.20;99.90
16846;DHT22;8539;53.188;8.696;2022-09-09T15:33:57;17.20;99.90
16846;DHT22;8539;53.188;8.696;2022-09-09T15:36:29;17.20;99.90
16846;DHT22;8539;53.188;8.696;2022-09-09T15:38:56;17.20;99.90
16846;DHT22;8539;53.188;8.696;2022-09-09T15:41:22;17.20;99.90
16846;DHT22;8539;53.188;8.696;2022-09-09T15:43:51;17.20;99.90
16846;DHT22;8539;53.188;8.696;2022-09-09T15:48:44;17.20;99.90
16846;DHT22;8539;53.188;8.696;2022-09-09T15:51:11;17.20;99.90
16846;DHT22;8539;53.188;8.696;2022-09-09T15:53:38;17.20;99.90
16846;DHT22;8539;53.188;8.696;2022-09-09T15:56:07;17.20;99.90
16846;DHT22;8539;53.188;8.696;2022-09-09T15:58:34;17.20;99.90
16846;DHT22;8539;53.188;8.696;2022-09-09T16:01:09;17.20;99.90
16846;DHT22;8539;53.188;8.696;2022-09-09T16:03:38;17.20;99.90
16846;DHT22;8539;53.188;8.696;2022-09-09T16:06:05;17.20;99.90
16846;DHT22;8539;53.188;8.696;2022-09-09T16:08:36;17.20;99.90
16846;DHT22;8539;53.188;8.696;2022-09-09T16:11:13;17.20;99.90
16846;DHT22;8539;53.188;8.696;2022-09-09T16:13:42;17.20;99.90
16846;DHT22;8539;53.188;8.696;2022-09-09T16:16:13;17.20;99.90
16846;DHT22;8539;53.188;8.696;2022-09-09T16:18:43;17.20;99.90
16846;DHT22;8539;53.188;8.696;2022-09-09T16:21:21;17.20;99.90
16846;DHT22;8539;53.188;8.696;2022-09-09T16:23:51;17.20;99.90
16846;DHT22;8539;53.188;8.696;2022-09-09T16:26:19;17.10;99.90
16846;DHT22;8539;53.188;8.696;2022-09-09T16:28:46;17.10;99.90
16846;DHT22;8539;53.188;8.696;2022-09-09T16:31:18;17.10;99.90
16846;DHT22;8539;53.188;8.696;2022-09-09T16:33:45;17.00;99.90
16846;DHT22;8539;53.188;8.696;2022-09-09T16:36:14;17.00;99.90
16846;DHT22;8539;53.188;8.696;2022-09-09T16:38:42;17.00;99.90
16846;DHT22;8539;53.188;8.696;2022-09-09T16:41:09;17.00;99.90
16846;DHT22;8539;53.188;8.696;2022-09-09T16:43:37;16.90;99.90
16846;DHT22;8539;53.188;8.696;2022-09-09T16:46:11;16.90;99.90
16846;DHT22;8539;53.188;8.696;2022-09-09T16:48:37;16.90;99.90
16846;DHT22;8539;53.188;8.696;2022-09-09T16:51:06;16.90;99.90
16846;DHT22;8539;53.188;8.696;2022-09-09T16:53:33;16.90;99.90
16846;DHT22;8539;53.188;8.696;2022-09-09T16:56:07;16.90;99.90
16846;DHT22;8539;53.188;8.696;2022-09-09T16:58:34;16.80;99.90
16846;DHT22;8539;53.188;8.696;2022-09-09T17:01:02;16.80;99.90
16846;DHT22;8539;53.188;8.696;2022-09-09T17:03:29;16.70;99.90
16846;DHT22;8539;53.188;8.696;2022-09-09T17:05:56;16.70;99.90
16846;DHT22;8539;53.188;8.696;2022-09-09T17:08:24;16.70;99.90
16846;DHT22;8539;53.188;8.696;2022-09-09T17:10:50;16.60;99.90
16846;DHT22;8539;53.188;8.696;2022-09-09T17:13:16;16.60;99.90
16846;DHT22;8539;53.188;8.696;2022-09-09T17:15:45;16.60;99.90
16846;DHT22;8539;53.188;8.696;2022-09-09T17:18:12;16.70;99.90
16846;DHT22;8539;53.188;8.696;2022-09-09T17:20:40;16.70;99.90
16846;DHT22;8539;53.188;8.696;2022-09-09T17:23:08;16.60;99.90
16846;DHT22;8539;53.188;8.696;2022-09-09T17:25:35;16.60;99.90
16846;DHT22;8539;53.188;8.696;2022-09-09T17:28:02;16.50;99.90
16846;DHT22;8539;53.188;8.696;2022-09-09T17:30:35;16.50;99.90
16846;DHT22;8539;53.188;8.696;2022-09-09T17:33:03;16.50;99.90
16846;DHT22;8539;53.188;8.696;2022-09-09T17:35:30;16.50;99.90
16846;DHT22;8539;53.188;8.696;2022-09-09T17:37:57;16.50;99.90
16846;DHT22;8539;53.188;8.696;2022-09-09T17:40:23;16.50;99.90
16846;DHT22;8539;53.188;8.696;2022-09-09T17:42:50;16.40;99.90
16846;DHT22;8539;53.188;8.696;2022-09-09T17:45:16;16.30;99.90
16846;DHT22;8539;53.188;8.696;2022-09-09T17:47:42;16.30;99.90
16846;DHT22;8539;53.188;8.696;2022-09-09T17:50:09;16.20;99.90